createdAt,value
2024-05-09T00:01:55.594Z,13.32
2024-05-09T00:04:26.701Z,13.25
2024-05-09T00:06:57.869Z,13.24
2024-05-09T00:09:29.029Z,13.20
2024-05-09T00:12:00.354Z,13.14
2024-05-09T00:14:31.661Z,13.10
2024-05-09T00:17:02.832Z,13.07
2024-05-09T00:19:34.422Z,13.03
2024-05-09T00:22:06.004Z,12.99
2024-05-09T00:24:37.498Z,12.98
2024-05-09T00:27:09.994Z,12.94
2024-05-09T00:29:42.441Z,12.90
2024-05-09T00:32:13.652Z,12.89
2024-05-09T00:34:44.871Z,12.84
2024-05-09T00:37:16.246Z,12.81
2024-05-09T00:39:47.527Z,12.78
2024-05-09T00:42:18.716Z,12.75
2024-05-09T00:44:50.066Z,12.72
2024-05-09T00:47:21.446Z,12.69
2024-05-09T00:49:52.620Z,12.66
2024-05-09T00:52:24.881Z,12.65
2024-05-09T00:54:57.099Z,12.61
2024-05-09T00:57:28.912Z,12.56
2024-05-09T01:00:01.689Z,12.53
2024-05-09T01:02:33.274Z,12.51
2024-05-09T01:05:05.040Z,12.49
2024-05-09T01:07:36.260Z,12.46
2024-05-09T01:10:14.115Z,12.42
2024-05-09T01:12:52.014Z,12.40
2024-05-09T01:15:23.077Z,12.38
2024-05-09T01:17:55.512Z,12.38
2024-05-09T01:20:37.223Z,12.35
2024-05-09T01:23:15.366Z,12.33
2024-05-09T01:25:47.029Z,12.32
2024-05-09T01:28:18.712Z,12.30
2024-05-09T01:30:50.004Z,12.28
2024-05-09T01:33:21.242Z,12.24
2024-05-09T01:35:52.494Z,12.21
2024-05-09T01:38:23.674Z,12.20
2024-05-09T01:40:55.088Z,12.18
2024-05-09T01:43:26.192Z,12.15
2024-05-09T01:45:57.345Z,12.12
2024-05-09T01:48:28.603Z,12.11
2024-05-09T01:50:59.831Z,12.09
2024-05-09T01:53:31.182Z,12.08
2024-05-09T01:56:02.374Z,12.02
2024-05-09T01:58:33.624Z,12.00
2024-05-09T02:01:05.327Z,11.96
2024-05-09T02:03:36.584Z,11.91
2024-05-09T02:06:08.378Z,11.90
2024-05-09T02:08:40.643Z,11.90
2024-05-09T02:11:12.076Z,11.90
2024-05-09T02:13:44.309Z,11.90
2024-05-09T02:16:15.516Z,11.89
2024-05-09T02:18:46.645Z,11.88
2024-05-09T02:21:17.803Z,11.86
2024-05-09T02:23:48.895Z,11.83
2024-05-09T02:26:20.044Z,11.79
2024-05-09T02:28:51.199Z,11.78
2024-05-09T02:31:22.529Z,11.76
2024-05-09T02:33:53.944Z,11.74
2024-05-09T02:36:25.179Z,11.73
2024-05-09T02:38:56.287Z,11.71
2024-05-09T02:41:27.751Z,11.69
2024-05-09T02:43:58.957Z,11.66
2024-05-09T02:46:30.109Z,11.65
2024-05-09T02:49:01.408Z,11.63
2024-05-09T02:51:32.688Z,11.62
2024-05-09T02:54:03.833Z,11.62
2024-05-09T02:56:34.967Z,11.59
2024-05-09T02:59:06.192Z,11.58
2024-05-09T03:01:37.607Z,11.57
2024-05-09T03:04:08.985Z,11.56
2024-05-09T03:06:42.942Z,11.57
2024-05-09T03:09:14.116Z,11.57
2024-05-09T03:11:45.836Z,11.58
2024-05-09T03:14:19.384Z,11.56
2024-05-09T03:16:50.602Z,11.56
2024-05-09T03:19:22.083Z,11.54
2024-05-09T03:21:53.335Z,11.53
2024-05-09T03:24:24.671Z,11.51
2024-05-09T03:26:55.985Z,11.52
2024-05-09T03:29:27.251Z,11.51
2024-05-09T03:31:59.087Z,11.52
2024-05-09T03:34:30.336Z,11.52
2024-05-09T03:37:01.484Z,11.51
2024-05-09T03:39:32.704Z,11.51
2024-05-09T03:42:04.192Z,11.51
2024-05-09T03:44:35.422Z,11.51
2024-05-09T03:47:06.826Z,11.51
2024-05-09T03:49:38.069Z,11.51
2024-05-09T03:52:09.505Z,11.51
2024-05-09T03:54:47.191Z,11.53
2024-05-09T03:57:18.390Z,11.55
2024-05-09T03:59:49.676Z,11.56
2024-05-09T04:02:21.091Z,11.58
2024-05-09T04:04:52.451Z,11.60
2024-05-09T04:07:23.968Z,11.60
2024-05-09T04:09:54.987Z,11.60
2024-05-09T04:12:26.327Z,11.58
2024-05-09T04:14:57.505Z,11.60
2024-05-09T04:17:28.977Z,11.61
2024-05-09T04:20:00.393Z,11.61
2024-05-09T04:22:31.723Z,11.62
2024-05-09T04:25:02.822Z,11.66
2024-05-09T04:27:34.080Z,11.68
2024-05-09T04:30:09.873Z,11.69
2024-05-09T04:32:44.030Z,11.70
2024-05-09T04:35:18.138Z,11.70
2024-05-09T04:37:49.540Z,11.73
2024-05-09T04:40:28.299Z,11.76
2024-05-09T04:43:06.042Z,11.79
2024-05-09T04:45:40.004Z,11.82
2024-05-09T04:48:11.957Z,11.85
2024-05-09T04:50:43.627Z,11.90
2024-05-09T04:53:17.535Z,11.92
2024-05-09T04:55:48.838Z,11.97
2024-05-09T04:58:20.010Z,12.01
2024-05-09T05:00:51.098Z,12.04
2024-05-09T05:03:22.768Z,12.09
2024-05-09T05:05:54.304Z,12.14
2024-05-09T05:08:25.481Z,12.18
2024-05-09T05:10:57.622Z,12.23
2024-05-09T05:13:32.855Z,12.30
2024-05-09T05:16:04.765Z,12.30
2024-05-09T05:18:36.066Z,12.37
2024-05-09T05:21:07.814Z,12.42
2024-05-09T05:23:40.566Z,12.44
2024-05-09T05:26:11.772Z,12.47
2024-05-09T05:28:42.849Z,12.55
2024-05-09T05:31:15.463Z,12.59
2024-05-09T05:33:49.167Z,12.67
2024-05-09T05:36:20.398Z,12.74
2024-05-09T05:38:51.757Z,12.76
2024-05-09T05:41:23.108Z,12.82
2024-05-09T05:43:54.396Z,12.92
2024-05-09T05:46:25.752Z,13.01
2024-05-09T05:48:57.239Z,13.04
2024-05-09T05:51:28.490Z,13.04
2024-05-09T05:54:02.191Z,13.10
2024-05-09T05:56:33.410Z,13.15
2024-05-09T05:59:04.983Z,13.21
2024-05-09T06:01:36.099Z,13.26
2024-05-09T06:04:07.544Z,13.33
2024-05-09T06:06:38.626Z,13.39
2024-05-09T06:09:09.707Z,13.53
2024-05-09T06:11:42.823Z,13.58
2024-05-09T06:14:14.146Z,13.60
2024-05-09T06:16:45.338Z,13.61
2024-05-09T06:19:16.684Z,13.71
2024-05-09T06:21:47.852Z,13.78
2024-05-09T06:24:19.642Z,13.85
2024-05-09T06:26:50.723Z,13.93
2024-05-09T06:29:21.835Z,13.95
2024-05-09T06:31:53.006Z,14.07
2024-05-09T06:34:24.316Z,14.16
2024-05-09T06:36:55.525Z,14.21
2024-05-09T06:39:26.710Z,14.29
2024-05-09T06:41:57.874Z,14.41
2024-05-09T06:44:29.327Z,14.46
2024-05-09T06:47:00.631Z,14.47
2024-05-09T06:49:32.694Z,14.54
2024-05-09T06:52:04.051Z,14.62
2024-05-09T06:54:35.108Z,14.68
2024-05-09T06:57:06.782Z,14.59
2024-05-09T06:59:38.166Z,14.76
2024-05-09T07:02:09.340Z,14.83
2024-05-09T07:04:41.080Z,14.93
2024-05-09T07:07:12.775Z,14.91
2024-05-09T07:09:43.948Z,14.98
2024-05-09T07:12:15.297Z,15.11
2024-05-09T07:14:46.528Z,15.19
2024-05-09T07:17:17.724Z,15.22
2024-05-09T07:19:48.917Z,15.30
2024-05-09T07:22:20.024Z,15.40
2024-05-09T07:24:51.274Z,15.48
2024-05-09T07:27:25.521Z,15.53
2024-05-09T07:29:57.624Z,15.57
2024-05-09T07:32:28.983Z,15.57
2024-05-09T07:35:00.708Z,15.63
2024-05-09T07:37:31.920Z,15.70
2024-05-09T07:40:05.790Z,15.72
2024-05-09T07:42:36.484Z,15.71
2024-05-09T07:45:29.579Z,15.77
2024-05-09T07:52:32.397Z,15.89
2024-05-09T07:53:39.851Z,16.03
2024-05-09T07:56:17.747Z,16.10
2024-05-09T07:58:50.410Z,16.12
2024-05-09T08:01:25.358Z,16.23
2024-05-09T08:03:56.862Z,16.27
2024-05-09T08:06:28.522Z,16.30
2024-05-09T08:09:05.125Z,16.38
2024-05-09T08:11:39.138Z,16.42
2024-05-09T08:14:10.395Z,16.55
2024-05-09T08:16:41.477Z,16.45
2024-05-09T08:19:12.824Z,16.60
2024-05-09T08:21:44.107Z,16.73
2024-05-09T08:24:15.142Z,16.80
2024-05-09T08:26:46.499Z,16.83
2024-05-09T08:29:17.628Z,16.86
2024-05-09T08:31:48.813Z,16.90
2024-05-09T08:34:20.676Z,16.90
2024-05-09T08:36:52.247Z,17.01
2024-05-09T08:39:23.601Z,17.14
2024-05-09T08:41:54.651Z,17.19
2024-05-09T08:44:25.841Z,17.27
2024-05-09T08:46:57.218Z,17.39
2024-05-09T08:49:28.438Z,17.48
2024-05-09T08:51:59.753Z,17.45
2024-05-09T08:54:31.180Z,17.43
2024-05-09T08:57:03.137Z,17.20
2024-05-09T08:59:36.692Z,17.37
2024-05-09T09:02:12.591Z,17.50
2024-05-09T09:04:48.635Z,17.60
2024-05-09T09:07:22.365Z,17.71
2024-05-09T09:09:54.774Z,17.88
2024-05-09T09:12:25.839Z,17.98
2024-05-09T09:14:56.894Z,18.09
2024-05-09T09:17:28.032Z,18.19
2024-05-09T09:20:01.466Z,18.25
2024-05-09T09:22:34.824Z,18.23
2024-05-09T09:25:06.353Z,18.27
2024-05-09T09:27:37.859Z,18.26
2024-05-09T09:30:22.934Z,18.29
2024-05-09T09:33:01.465Z,18.33
2024-05-09T09:35:32.927Z,18.49
2024-05-09T09:38:05.804Z,18.58
2024-05-09T09:40:42.851Z,18.74
2024-05-09T09:43:22.634Z,18.80
2024-05-09T09:45:55.759Z,18.77
2024-05-09T09:48:28.399Z,18.77
2024-05-09T09:51:00.171Z,18.80
2024-05-09T09:53:32.510Z,18.88
2024-05-09T09:56:03.994Z,18.97
2024-05-09T09:58:37.021Z,19.14
2024-05-09T10:01:08.399Z,19.15
2024-05-09T10:03:39.892Z,19.19
2024-05-09T10:06:13.210Z,19.19
2024-05-09T10:12:59.704Z,19.30
2024-05-09T10:15:31.490Z,19.35
2024-05-09T10:18:08.030Z,19.46
2024-05-09T10:20:46.230Z,19.57
2024-05-09T10:23:28.182Z,19.73
2024-05-09T10:26:04.450Z,19.79
2024-05-09T10:28:37.262Z,19.77
2024-05-09T10:31:13.328Z,19.70
2024-05-09T10:33:49.982Z,19.65
2024-05-09T10:36:23.242Z,19.58
2024-05-09T10:38:55.423Z,19.33
2024-05-09T10:41:26.548Z,19.22
2024-05-09T10:43:57.601Z,19.10
2024-05-09T10:46:28.758Z,19.07
2024-05-09T10:49:03.312Z,19.00
2024-05-09T10:51:37.025Z,19.11
2024-05-09T10:54:08.447Z,19.35
2024-05-09T10:56:39.661Z,19.59
2024-05-09T10:59:13.197Z,19.76
2024-05-09T11:01:44.686Z,19.89
2024-05-09T11:04:16.531Z,19.83
2024-05-09T11:06:49.317Z,20.08
2024-05-09T11:09:20.656Z,20.25
2024-05-09T11:11:51.947Z,20.41
2024-05-09T11:14:23.100Z,20.62
2024-05-09T11:17:01.775Z,20.80
2024-05-09T11:19:34.042Z,20.87
2024-05-09T11:22:05.694Z,20.98
2024-05-09T11:24:37.507Z,21.17
2024-05-09T11:27:08.574Z,21.33
2024-05-09T11:29:40.759Z,21.33
2024-05-09T11:32:14.710Z,21.38
2024-05-09T11:34:45.838Z,21.42
2024-05-09T11:37:17.131Z,21.45
2024-05-09T11:39:48.623Z,21.49
2024-05-09T11:42:20.569Z,21.59
2024-05-09T11:44:51.743Z,21.66
2024-05-09T11:47:23.048Z,21.78
2024-05-09T11:49:56.058Z,21.96
2024-05-09T11:52:27.429Z,22.04
2024-05-09T11:54:58.574Z,22.24
2024-05-09T11:57:30.864Z,22.13
2024-05-09T12:00:02.333Z,22.23
2024-05-09T12:02:35.833Z,22.34
2024-05-09T12:05:07.456Z,22.32
2024-05-09T12:07:38.708Z,22.40
2024-05-09T12:10:16.566Z,22.40
2024-05-09T12:12:50.584Z,22.37
2024-05-09T12:15:21.697Z,22.47
2024-05-09T12:17:52.926Z,22.45
2024-05-09T12:20:32.396Z,22.61
2024-05-09T12:23:09.480Z,22.60
2024-05-09T12:25:41.791Z,22.61
2024-05-09T12:28:12.994Z,22.71
2024-05-09T12:30:44.375Z,22.81
2024-05-09T12:33:15.666Z,22.93
2024-05-09T12:35:49.242Z,22.92
2024-05-09T12:38:22.044Z,23.01
2024-05-09T12:40:53.292Z,23.12
2024-05-09T12:43:24.610Z,23.18
2024-05-09T12:45:56.003Z,23.27
2024-05-09T12:48:27.230Z,23.36
2024-05-09T12:50:58.358Z,23.41
2024-05-09T12:53:29.464Z,23.40
2024-05-09T12:56:02.918Z,23.37
2024-05-09T12:58:35.576Z,23.42
2024-05-09T13:01:07.051Z,23.44
2024-05-09T13:03:38.355Z,23.47
2024-05-09T13:06:09.790Z,23.45
2024-05-09T13:08:41.244Z,23.49
2024-05-09T13:11:12.865Z,23.44
2024-05-09T13:13:45.204Z,23.47
2024-05-09T13:16:16.442Z,23.41
2024-05-09T13:18:47.794Z,23.41
2024-05-09T13:21:18.874Z,23.43
2024-05-09T13:23:50.050Z,23.59
2024-05-09T13:26:21.274Z,23.67
2024-05-09T13:28:52.392Z,23.70
2024-05-09T13:31:23.595Z,23.74
2024-05-09T13:33:54.788Z,23.85
2024-05-09T13:36:26.068Z,23.88
2024-05-09T13:38:57.380Z,24.07
2024-05-09T13:41:28.604Z,23.99
2024-05-09T13:43:59.708Z,24.05
2024-05-09T13:46:31.038Z,23.89
2024-05-09T13:49:02.393Z,23.87
2024-05-09T13:51:33.676Z,24.00
2024-05-09T13:54:05.275Z,24.12
2024-05-09T13:56:39.102Z,24.13
2024-05-09T13:59:10.788Z,24.02
2024-05-09T14:01:41.990Z,24.27
2024-05-09T14:04:13.540Z,24.16
2024-05-09T14:06:44.943Z,24.41
2024-05-09T14:09:16.296Z,24.37
2024-05-09T14:11:47.526Z,24.37
2024-05-09T14:14:18.627Z,24.46
2024-05-09T14:16:50.034Z,24.54
2024-05-09T14:19:21.412Z,24.32
2024-05-09T14:21:52.564Z,24.24
2024-05-09T14:24:23.651Z,24.12
2024-05-09T14:26:54.796Z,24.30
2024-05-09T14:29:25.996Z,24.21
2024-05-09T14:31:57.048Z,24.10
2024-05-09T14:34:28.391Z,24.08
2024-05-09T14:36:59.747Z,24.02
2024-05-09T14:39:30.883Z,23.55
2024-05-09T14:42:02.091Z,23.48
2024-05-09T14:44:33.400Z,23.53
2024-05-09T14:47:04.952Z,23.57
2024-05-09T14:49:36.089Z,23.63
2024-05-09T14:52:08.191Z,23.62
2024-05-09T14:54:39.472Z,23.56
2024-05-09T14:57:11.753Z,23.52
2024-05-09T14:59:43.018Z,23.38
2024-05-09T15:02:14.498Z,23.40
2024-05-09T15:04:45.833Z,23.52
2024-05-09T15:07:17.510Z,23.43
2024-05-09T15:09:48.844Z,23.39
2024-05-09T15:12:20.119Z,23.34
2024-05-09T15:14:52.068Z,23.26
2024-05-09T15:17:23.171Z,23.19
2024-05-09T15:19:54.818Z,23.10
2024-05-09T15:22:26.241Z,23.05
2024-05-09T15:24:57.426Z,22.98
2024-05-09T15:27:28.808Z,22.88
2024-05-09T15:30:02.013Z,22.80
2024-05-09T15:32:33.624Z,22.71
2024-05-09T15:35:05.259Z,22.61
2024-05-09T15:37:36.662Z,22.49
2024-05-09T15:40:15.336Z,22.42
2024-05-09T15:42:53.096Z,22.38
2024-05-09T15:45:24.308Z,22.35
2024-05-09T15:47:55.431Z,22.28
2024-05-09T15:50:36.484Z,22.23
2024-05-09T15:53:12.992Z,22.21
2024-05-09T15:55:45.074Z,22.15
2024-05-09T15:58:16.528Z,22.09
2024-05-09T16:00:49.756Z,22.08
2024-05-09T16:03:22.919Z,22.03
2024-05-09T16:05:57.158Z,21.93
2024-05-09T16:08:28.467Z,21.92
2024-05-09T16:10:59.667Z,21.94
2024-05-09T16:13:30.958Z,21.86
2024-05-09T16:16:02.814Z,21.82
2024-05-09T16:18:34.054Z,21.71
2024-05-09T16:21:05.688Z,21.62
2024-05-09T16:23:39.220Z,21.58
2024-05-09T16:26:10.407Z,21.56
2024-05-09T16:28:41.577Z,21.53
2024-05-09T16:31:12.706Z,21.50
2024-05-09T16:33:44.078Z,21.50
2024-05-09T16:36:15.280Z,21.52
2024-05-09T16:38:46.370Z,21.52
2024-05-09T16:41:17.439Z,21.47
2024-05-09T16:43:48.624Z,21.55
2024-05-09T16:46:20.080Z,21.55
2024-05-09T16:48:51.673Z,21.56
2024-05-09T16:51:22.804Z,21.59
2024-05-09T16:53:54.123Z,21.60
2024-05-09T16:56:27.026Z,21.61
2024-05-09T16:58:58.502Z,21.59
2024-05-09T17:01:30.632Z,21.57
2024-05-09T17:04:02.044Z,21.55
2024-05-09T17:06:33.320Z,21.52
2024-05-09T17:09:11.300Z,21.55
2024-05-09T17:11:44.016Z,21.48
2024-05-09T17:14:15.766Z,21.47
2024-05-09T17:16:47.237Z,21.49
2024-05-09T17:19:18.528Z,21.49
2024-05-09T17:21:49.776Z,21.53
2024-05-09T17:24:21.029Z,21.59
2024-05-09T17:26:52.975Z,21.62
2024-05-09T17:29:24.221Z,21.63
2024-05-09T17:31:55.372Z,21.59
2024-05-09T17:34:27.444Z,21.55
2024-05-09T17:37:00.121Z,21.51
2024-05-09T17:39:31.280Z,21.48
2024-05-09T17:42:02.394Z,21.48
2024-05-09T17:44:33.642Z,21.51
2024-05-09T17:47:06.118Z,21.54
2024-05-09T17:49:37.322Z,21.53
2024-05-09T17:52:09.205Z,21.49
2024-05-09T17:54:40.530Z,21.46
2024-05-09T17:57:11.794Z,21.41
2024-05-09T17:59:42.900Z,21.36
2024-05-09T18:02:14.524Z,21.29
2024-05-09T18:04:45.887Z,21.22
2024-05-09T18:07:17.232Z,21.11
2024-05-09T18:09:48.381Z,21.00
2024-05-09T18:12:19.614Z,20.86
2024-05-09T18:14:50.821Z,20.76
2024-05-09T18:17:25.240Z,20.64
2024-05-09T18:19:56.974Z,20.49
2024-05-09T18:22:28.261Z,20.36
2024-05-09T18:24:59.411Z,20.22
2024-05-09T18:27:30.807Z,20.10
2024-05-09T18:30:01.976Z,19.98
2024-05-09T18:32:33.297Z,19.85
2024-05-09T18:35:04.743Z,19.72
2024-05-09T18:37:35.933Z,19.63
2024-05-09T18:40:12.194Z,19.49
2024-05-09T18:42:49.741Z,19.38
2024-05-09T18:45:20.906Z,19.28
2024-05-09T18:47:52.311Z,19.16
2024-05-09T18:50:31.962Z,19.03
2024-05-09T18:53:07.841Z,18.91
2024-05-09T18:55:39.053Z,18.78
2024-05-09T18:58:10.472Z,18.68
2024-05-09T19:00:45.196Z,18.63
2024-05-09T19:03:18.753Z,18.55
2024-05-09T19:05:50.314Z,18.46
2024-05-09T19:08:21.490Z,18.37
2024-05-09T19:10:52.785Z,18.28
2024-05-09T19:13:24.786Z,18.19
2024-05-09T19:15:56.687Z,18.09
2024-05-09T19:18:27.923Z,18.03
2024-05-09T19:20:59.055Z,17.93
2024-05-09T19:23:32.533Z,17.85
2024-05-09T19:26:03.874Z,17.80
2024-05-09T19:28:35.041Z,17.76
2024-05-09T19:31:06.478Z,17.72
2024-05-09T19:33:38.349Z,17.66
2024-05-09T19:36:10.323Z,17.61
2024-05-09T19:38:41.529Z,17.56
2024-05-09T19:41:12.654Z,17.50
2024-05-09T19:43:43.904Z,17.42
2024-05-09T19:46:15.308Z,17.36
2024-05-09T19:48:46.554Z,17.28
2024-05-09T19:51:17.851Z,17.21
2024-05-09T19:53:50.453Z,17.15
2024-05-09T19:56:21.720Z,17.07
2024-05-09T19:58:52.890Z,17.01
2024-05-09T20:01:24.171Z,16.94
2024-05-09T20:03:58.776Z,16.86
2024-05-09T20:06:30.554Z,16.81
2024-05-09T20:09:01.649Z,16.74
2024-05-09T20:11:33.299Z,16.70
2024-05-09T20:14:04.524Z,16.65
2024-05-09T20:16:35.744Z,16.60
2024-05-09T20:19:07.207Z,16.55
2024-05-09T20:21:43.507Z,16.51
2024-05-09T20:24:14.750Z,16.47
2024-05-09T20:26:45.859Z,16.43
2024-05-09T20:29:17.056Z,16.38
2024-05-09T20:31:48.213Z,16.36
2024-05-09T20:34:19.298Z,16.34
2024-05-09T20:36:50.500Z,16.32
2024-05-09T20:39:26.932Z,16.29
2024-05-09T20:41:58.715Z,16.26
2024-05-09T20:44:30.123Z,16.26
2024-05-09T20:47:01.246Z,16.23
2024-05-09T20:49:32.530Z,16.21
2024-05-09T20:52:03.758Z,16.19
2024-05-09T20:54:34.917Z,16.16
2024-05-09T20:57:06.755Z,16.12
2024-05-09T20:59:39.918Z,16.06
2024-05-09T21:02:11.575Z,16.08
2024-05-09T21:04:43.004Z,16.07
2024-05-09T21:07:14.346Z,16.00
2024-05-09T21:09:47.229Z,16.02
2024-05-09T21:12:18.480Z,16.02
2024-05-09T21:14:49.648Z,16.02
2024-05-09T21:17:20.974Z,16.00
2024-05-09T21:19:52.351Z,15.99
2024-05-09T21:22:24.219Z,15.95
2024-05-09T21:24:55.310Z,15.93
2024-05-09T21:27:26.588Z,15.91
2024-05-09T21:29:57.675Z,15.91
2024-05-09T21:32:29.140Z,15.87
2024-05-09T21:35:00.303Z,15.85
2024-05-09T21:37:31.528Z,15.87
2024-05-09T21:40:09.158Z,15.85
2024-05-09T21:42:42.518Z,15.85
2024-05-09T21:45:13.711Z,15.81
2024-05-09T21:47:45.233Z,15.81
2024-05-09T21:50:22.773Z,15.79
2024-05-09T21:52:59.548Z,15.77
2024-05-09T21:55:30.679Z,15.73
2024-05-09T21:58:01.946Z,15.70
2024-05-09T22:00:37.768Z,15.66
2024-05-09T22:03:11.896Z,15.61
2024-05-09T22:05:44.872Z,15.58
2024-05-09T22:08:16.619Z,15.55
2024-05-09T22:10:47.686Z,15.53
2024-05-09T22:13:20.061Z,15.49
2024-05-09T22:15:51.375Z,15.47
2024-05-09T22:18:22.728Z,15.44
2024-05-09T22:20:55.026Z,15.42
2024-05-09T22:23:26.117Z,15.39
2024-05-09T22:25:57.362Z,15.37
2024-05-09T22:28:28.478Z,15.31
2024-05-09T22:30:59.655Z,15.29
2024-05-09T22:33:31.049Z,15.25
2024-05-09T22:36:02.323Z,15.21
2024-05-09T22:38:33.512Z,15.19
2024-05-09T22:41:07.652Z,15.17
2024-05-09T22:43:38.837Z,15.13
2024-05-09T22:46:10.243Z,15.11
2024-05-09T22:48:41.684Z,15.10
2024-05-09T22:51:14.304Z,15.08
2024-05-09T22:53:45.363Z,15.06
2024-05-09T22:56:26.610Z,15.03
2024-05-09T22:58:57.966Z,15.01
2024-05-09T23:01:29.425Z,14.98
2024-05-09T23:04:00.699Z,14.96
2024-05-09T23:06:33.046Z,14.94
2024-05-09T23:09:04.239Z,14.93
2024-05-09T23:11:35.405Z,14.87
2024-05-09T23:14:06.770Z,14.85
2024-05-09T23:16:38.120Z,14.82
2024-05-09T23:19:10.139Z,14.81
2024-05-09T23:21:41.672Z,14.77
2024-05-09T23:24:12.912Z,14.74
2024-05-09T23:26:44.691Z,14.72
2024-05-09T23:29:16.125Z,14.70
2024-05-09T23:31:47.476Z,14.70
2024-05-09T23:34:18.836Z,14.64
2024-05-09T23:36:50.041Z,14.64
2024-05-09T23:39:21.288Z,14.60
2024-05-09T23:41:52.450Z,14.60
2024-05-09T23:44:23.506Z,14.57
2024-05-09T23:46:54.680Z,14.55
2024-05-09T23:49:26.039Z,14.52
2024-05-09T23:51:57.182Z,14.51
2024-05-09T23:54:28.275Z,14.47
2024-05-09T23:56:59.372Z,14.47
2024-05-09T23:59:30.574Z,14.46
